sensor_id;sensor_type;location;lat;lon;timestamp;P1;durP1;ratioP1;P2;durP2;ratioP2
4365;SDS011;2196;47.422;9.656;2023-09-19T00:02:26;2.30;;;0.50;;
4365;SDS011;2196;47.422;9.656;2023-09-19T00:04:54;0.40;;;0.40;;
4365;SDS011;2196;47.422;9.656;2023-09-19T00:07:21;0.30;;;0.30;;
4365;SDS011;2196;47.422;9.656;2023-09-19T00:09:48;0.57;;;0.57;;
4365;SDS011;2196;47.422;9.656;2023-09-19T00:12:15;1.47;;;0.50;;
4365;SDS011;2196;47.422;9.656;2023-09-19T00:14:43;1.33;;;0.60;;
4365;SDS011;2196;47.422;9.656;2023-09-19T00:17:11;0.40;;;0.40;;
4365;SDS011;2196;47.422;9.656;2023-09-19T00:19:38;0.57;;;0.50;;
4365;SDS011;2196;47.422;9.656;2023-09-19T00:22:07;1.43;;;0.60;;
4365;SDS011;2196;47.422;9.656;2023-09-19T00:24:34;1.03;;;0.70;;
4365;SDS011;2196;47.422;9.656;2023-09-19T00:27:01;0.67;;;0.50;;
4365;SDS011;2196;47.422;9.656;2023-09-19T00:29:30;2.07;;;0.40;;
4365;SDS011;2196;47.422;9.656;2023-09-19T00:31:58;0.77;;;0.63;;
4365;SDS011;2196;47.422;9.656;2023-09-19T00:34:27;1.30;;;0.50;;
4365;SDS011;2196;47.422;9.656;2023-09-19T00:36:54;0.70;;;0.70;;
4365;SDS011;2196;47.422;9.656;2023-09-19T00:39:21;1.07;;;0.67;;
4365;SDS011;2196;47.422;9.656;2023-09-19T00:41:50;0.53;;;0.50;;
4365;SDS011;2196;47.422;9.656;2023-09-19T00:44:21;2.20;;;0.80;;
4365;SDS011;2196;47.422;9.656;2023-09-19T00:46:48;0.70;;;0.70;;
4365;SDS011;2196;47.422;9.656;2023-09-19T00:49:16;0.57;;;0.57;;
4365;SDS011;2196;47.422;9.656;2023-09-19T00:51:47;1.13;;;0.60;;
4365;SDS011;2196;47.422;9.656;2023-09-19T00:54:14;1.97;;;1.77;;
4365;SDS011;2196;47.422;9.656;2023-09-19T00:56:47;1.77;;;0.60;;
4365;SDS011;2196;47.422;9.656;2023-09-19T00:59:16;0.73;;;0.73;;
4365;SDS011;2196;47.422;9.656;2023-09-19T01:01:43;0.60;;;0.60;;
4365;SDS011;2196;47.422;9.656;2023-09-19T01:04:11;1.77;;;0.73;;
4365;SDS011;2196;47.422;9.656;2023-09-19T01:06:38;1.03;;;0.80;;
4365;SDS011;2196;47.422;9.656;2023-09-19T01:09:07;1.80;;;0.53;;
4365;SDS011;2196;47.422;9.656;2023-09-19T01:11:38;0.93;;;0.80;;
4365;SDS011;2196;47.422;9.656;2023-09-19T01:17:00;0.70;;;0.63;;
4365;SDS011;2196;47.422;9.656;2023-09-19T01:22:56;0.90;;;0.80;;
4365;SDS011;2196;47.422;9.656;2023-09-19T01:28:43;3.37;;;0.70;;
4365;SDS011;2196;47.422;9.656;2023-09-19T01:31:22;0.50;;;0.50;;
4365;SDS011;2196;47.422;9.656;2023-09-19T01:33:54;0.67;;;0.60;;
4365;SDS011;2196;47.422;9.656;2023-09-19T01:36:24;9.40;;;0.70;;
4365;SDS011;2196;47.422;9.656;2023-09-19T01:38:55;2.17;;;1.00;;
4365;SDS011;2196;47.422;9.656;2023-09-19T01:41:31;0.77;;;0.77;;
4365;SDS011;2196;47.422;9.656;2023-09-19T01:44:06;0.80;;;0.80;;
4365;SDS011;2196;47.422;9.656;2023-09-19T01:46:40;1.90;;;0.70;;
4365;SDS011;2196;47.422;9.656;2023-09-19T01:49:12;9.20;;;2.93;;
4365;SDS011;2196;47.422;9.656;2023-09-19T01:51:53;0.77;;;0.77;;
4365;SDS011;2196;47.422;9.656;2023-09-19T01:54:31;0.80;;;0.70;;
4365;SDS011;2196;47.422;9.656;2023-09-19T01:57:07;0.73;;;0.73;;
4365;SDS011;2196;47.422;9.656;2023-09-19T01:59:43;1.53;;;0.63;;
4365;SDS011;2196;47.422;9.656;2023-09-19T02:02:16;0.60;;;0.60;;
4365;SDS011;2196;47.422;9.656;2023-09-19T02:04:43;0.47;;;0.47;;
4365;SDS011;2196;47.422;9.656;2023-09-19T02:07:10;0.50;;;0.50;;
4365;SDS011;2196;47.422;9.656;2023-09-19T02:09:41;0.80;;;0.63;;
4365;SDS011;2196;47.422;9.656;2023-09-19T02:12:08;1.63;;;0.50;;
4365;SDS011;2196;47.422;9.656;2023-09-19T02:14:35;1.50;;;0.70;;
4365;SDS011;2196;47.422;9.656;2023-09-19T02:17:03;1.80;;;0.67;;
4365;SDS011;2196;47.422;9.656;2023-09-19T02:19:38;0.50;;;0.40;;
4365;SDS011;2196;47.422;9.656;2023-09-19T02:22:06;1.03;;;0.57;;
4365;SDS011;2196;47.422;9.656;2023-09-19T02:24:35;0.50;;;0.50;;
4365;SDS011;2196;47.422;9.656;2023-09-19T02:27:03;0.53;;;0.50;;
4365;SDS011;2196;47.422;9.656;2023-09-19T02:29:30;1.63;;;0.60;;
4365;SDS011;2196;47.422;9.656;2023-09-19T02:31:59;0.43;;;0.43;;
4365;SDS011;2196;47.422;9.656;2023-09-19T02:34:27;0.90;;;0.70;;
4365;SDS011;2196;47.422;9.656;2023-09-19T02:36:56;0.60;;;0.60;;
4365;SDS011;2196;47.422;9.656;2023-09-19T02:39:23;0.50;;;0.50;;
4365;SDS011;2196;47.422;9.656;2023-09-19T02:41:50;2.30;;;1.00;;
4365;SDS011;2196;47.422;9.656;2023-09-19T02:44:17;1.13;;;0.70;;
4365;SDS011;2196;47.422;9.656;2023-09-19T02:46:45;1.23;;;1.00;;
4365;SDS011;2196;47.422;9.656;2023-09-19T02:49:13;0.60;;;0.60;;
4365;SDS011;2196;47.422;9.656;2023-09-19T02:51:40;1.90;;;0.90;;
4365;SDS011;2196;47.422;9.656;2023-09-19T02:54:08;0.70;;;0.70;;
4365;SDS011;2196;47.422;9.656;2023-09-19T02:56:36;0.63;;;0.63;;
4365;SDS011;2196;47.422;9.656;2023-09-19T02:59:04;2.00;;;0.77;;
4365;SDS011;2196;47.422;9.656;2023-09-19T03:01:31;0.80;;;0.80;;
4365;SDS011;2196;47.422;9.656;2023-09-19T03:03:58;0.73;;;0.70;;
4365;SDS011;2196;47.422;9.656;2023-09-19T03:06:25;1.23;;;1.13;;
4365;SDS011;2196;47.422;9.656;2023-09-19T03:08:52;2.57;;;0.57;;
4365;SDS011;2196;47.422;9.656;2023-09-19T03:11:22;0.70;;;0.70;;
4365;SDS011;2196;47.422;9.656;2023-09-19T03:13:53;0.60;;;0.60;;
4365;SDS011;2196;47.422;9.656;2023-09-19T03:16:20;1.13;;;0.40;;
4365;SDS011;2196;47.422;9.656;2023-09-19T03:18:47;0.40;;;0.40;;
4365;SDS011;2196;47.422;9.656;2023-09-19T03:21:14;0.93;;;0.77;;
4365;SDS011;2196;47.422;9.656;2023-09-19T03:23:42;0.70;;;0.70;;
4365;SDS011;2196;47.422;9.656;2023-09-19T03:26:10;1.03;;;0.70;;
4365;SDS011;2196;47.422;9.656;2023-09-19T03:28:40;1.57;;;1.13;;
4365;SDS011;2196;47.422;9.656;2023-09-19T03:31:07;1.67;;;0.60;;
4365;SDS011;2196;47.422;9.656;2023-09-19T03:33:35;0.70;;;0.70;;
4365;SDS011;2196;47.422;9.656;2023-09-19T03:36:02;0.83;;;0.57;;
4365;SDS011;2196;47.422;9.656;2023-09-19T03:38:30;0.97;;;0.70;;
4365;SDS011;2196;47.422;9.656;2023-09-19T03:40:58;1.37;;;0.73;;
4365;SDS011;2196;47.422;9.656;2023-09-19T03:43:26;3.30;;;0.73;;
4365;SDS011;2196;47.422;9.656;2023-09-19T03:45:54;1.50;;;1.40;;
4365;SDS011;2196;47.422;9.656;2023-09-19T03:48:21;0.60;;;0.60;;
4365;SDS011;2196;47.422;9.656;2023-09-19T03:50:48;2.03;;;0.63;;
4365;SDS011;2196;47.422;9.656;2023-09-19T03:53:16;3.10;;;0.60;;
4365;SDS011;2196;47.422;9.656;2023-09-19T03:55:44;1.17;;;1.07;;
4365;SDS011;2196;47.422;9.656;2023-09-19T03:58:11;1.23;;;0.60;;
4365;SDS011;2196;47.422;9.656;2023-09-19T04:00:39;2.17;;;0.73;;
4365;SDS011;2196;47.422;9.656;2023-09-19T04:03:07;1.60;;;0.73;;
4365;SDS011;2196;47.422;9.656;2023-09-19T04:05:35;1.10;;;0.53;;
4365;SDS011;2196;47.422;9.656;2023-09-19T04:08:03;2.67;;;0.60;;
4365;SDS011;2196;47.422;9.656;2023-09-19T04:10:30;0.77;;;0.77;;
4365;SDS011;2196;47.422;9.656;2023-09-19T04:12:57;0.60;;;0.60;;
4365;SDS011;2196;47.422;9.656;2023-09-19T04:15:24;1.90;;;0.70;;
4365;SDS011;2196;47.422;9.656;2023-09-19T04:17:51;1.13;;;1.03;;
4365;SDS011;2196;47.422;9.656;2023-09-19T04:20:19;0.50;;;0.50;;
4365;SDS011;2196;47.422;9.656;2023-09-19T04:22:48;2.10;;;0.70;;
4365;SDS011;2196;47.422;9.656;2023-09-19T04:25:15;0.60;;;0.60;;
4365;SDS011;2196;47.422;9.656;2023-09-19T04:27:43;1.27;;;0.53;;
4365;SDS011;2196;47.422;9.656;2023-09-19T04:30:11;3.03;;;1.53;;
4365;SDS011;2196;47.422;9.656;2023-09-19T04:32:39;2.03;;;0.53;;
4365;SDS011;2196;47.422;9.656;2023-09-19T04:35:07;0.50;;;0.47;;
4365;SDS011;2196;47.422;9.656;2023-09-19T04:37:40;0.83;;;0.70;;
4365;SDS011;2196;47.422;9.656;2023-09-19T04:40:07;0.93;;;0.63;;
4365;SDS011;2196;47.422;9.656;2023-09-19T04:42:39;3.53;;;0.53;;
4365;SDS011;2196;47.422;9.656;2023-09-19T04:45:07;2.30;;;0.80;;
4365;SDS011;2196;47.422;9.656;2023-09-19T04:47:35;0.60;;;0.60;;
4365;SDS011;2196;47.422;9.656;2023-09-19T04:50:04;1.90;;;1.00;;
4365;SDS011;2196;47.422;9.656;2023-09-19T04:52:41;1.67;;;0.93;;
4365;SDS011;2196;47.422;9.656;2023-09-19T04:55:09;1.40;;;0.93;;
4365;SDS011;2196;47.422;9.656;2023-09-19T04:57:42;1.17;;;0.77;;
4365;SDS011;2196;47.422;9.656;2023-09-19T05:00:11;1.00;;;0.70;;
4365;SDS011;2196;47.422;9.656;2023-09-19T05:02:39;1.70;;;0.90;;
4365;SDS011;2196;47.422;9.656;2023-09-19T05:05:07;1.53;;;1.10;;
4365;SDS011;2196;47.422;9.656;2023-09-19T05:07:35;1.47;;;0.80;;
4365;SDS011;2196;47.422;9.656;2023-09-19T05:10:03;0.80;;;0.80;;
4365;SDS011;2196;47.422;9.656;2023-09-19T05:12:32;3.30;;;0.83;;
4365;SDS011;2196;47.422;9.656;2023-09-19T05:15:00;1.33;;;1.30;;
4365;SDS011;2196;47.422;9.656;2023-09-19T05:17:27;1.70;;;0.70;;
4365;SDS011;2196;47.422;9.656;2023-09-19T05:19:55;2.57;;;1.23;;
4365;SDS011;2196;47.422;9.656;2023-09-19T05:22:22;1.23;;;0.90;;
4365;SDS011;2196;47.422;9.656;2023-09-19T05:24:49;1.27;;;1.07;;
4365;SDS011;2196;47.422;9.656;2023-09-19T05:27:19;1.33;;;1.23;;
4365;SDS011;2196;47.422;9.656;2023-09-19T05:29:47;1.10;;;0.97;;
4365;SDS011;2196;47.422;9.656;2023-09-19T05:32:15;3.00;;;2.20;;
4365;SDS011;2196;47.422;9.656;2023-09-19T05:34:44;1.30;;;1.07;;
4365;SDS011;2196;47.422;9.656;2023-09-19T05:37:12;1.33;;;1.23;;
4365;SDS011;2196;47.422;9.656;2023-09-19T05:39:41;1.77;;;1.33;;
4365;SDS011;2196;47.422;9.656;2023-09-19T05:42:08;0.97;;;0.70;;
4365;SDS011;2196;47.422;9.656;2023-09-19T05:44:36;2.77;;;1.10;;
4365;SDS011;2196;47.422;9.656;2023-09-19T05:47:03;3.97;;;1.40;;
4365;SDS011;2196;47.422;9.656;2023-09-19T05:49:31;0.87;;;0.87;;
4365;SDS011;2196;47.422;9.656;2023-09-19T05:51:58;1.20;;;1.10;;
4365;SDS011;2196;47.422;9.656;2023-09-19T05:54:26;0.80;;;0.80;;
4365;SDS011;2196;47.422;9.656;2023-09-19T05:56:52;1.00;;;0.80;;
4365;SDS011;2196;47.422;9.656;2023-09-19T05:59:19;2.43;;;1.20;;
4365;SDS011;2196;47.422;9.656;2023-09-19T06:01:48;0.80;;;0.80;;
4365;SDS011;2196;47.422;9.656;2023-09-19T06:04:14;1.37;;;1.10;;
4365;SDS011;2196;47.422;9.656;2023-09-19T06:06:42;1.80;;;1.10;;
4365;SDS011;2196;47.422;9.656;2023-09-19T06:09:09;1.63;;;1.30;;
4365;SDS011;2196;47.422;9.656;2023-09-19T06:11:36;4.20;;;1.33;;
4365;SDS011;2196;47.422;9.656;2023-09-19T06:14:04;1.80;;;1.60;;
4365;SDS011;2196;47.422;9.656;2023-09-19T06:16:31;1.50;;;1.03;;
4365;SDS011;2196;47.422;9.656;2023-09-19T06:19:00;1.53;;;1.37;;
4365;SDS011;2196;47.422;9.656;2023-09-19T06:21:27;1.77;;;1.20;;
4365;SDS011;2196;47.422;9.656;2023-09-19T06:23:54;1.10;;;1.10;;
4365;SDS011;2196;47.422;9.656;2023-09-19T06:26:23;1.53;;;1.20;;
4365;SDS011;2196;47.422;9.656;2023-09-19T06:28:52;1.70;;;1.60;;
4365;SDS011;2196;47.422;9.656;2023-09-19T06:31:20;2.73;;;2.23;;
4365;SDS011;2196;47.422;9.656;2023-09-19T06:33:51;1.63;;;1.53;;
4365;SDS011;2196;47.422;9.656;2023-09-19T06:36:19;1.87;;;1.77;;
4365;SDS011;2196;47.422;9.656;2023-09-19T06:38:47;3.00;;;2.17;;
4365;SDS011;2196;47.422;9.656;2023-09-19T06:41:16;4.77;;;3.03;;
4365;SDS011;2196;47.422;9.656;2023-09-19T06:43:43;1.63;;;1.57;;
4365;SDS011;2196;47.422;9.656;2023-09-19T06:46:10;2.60;;;2.00;;
4365;SDS011;2196;47.422;9.656;2023-09-19T06:48:37;2.37;;;2.27;;
4365;SDS011;2196;47.422;9.656;2023-09-19T06:51:04;1.87;;;1.77;;
4365;SDS011;2196;47.422;9.656;2023-09-19T06:53:33;2.50;;;1.60;;
4365;SDS011;2196;47.422;9.656;2023-09-19T06:56:01;3.93;;;2.13;;
4365;SDS011;2196;47.422;9.656;2023-09-19T06:58:28;2.80;;;2.23;;
4365;SDS011;2196;47.422;9.656;2023-09-19T07:00:56;2.03;;;1.93;;
4365;SDS011;2196;47.422;9.656;2023-09-19T07:03:23;2.70;;;2.00;;
4365;SDS011;2196;47.422;9.656;2023-09-19T07:05:51;4.23;;;2.43;;
4365;SDS011;2196;47.422;9.656;2023-09-19T07:08:21;5.13;;;2.57;;
4365;SDS011;2196;47.422;9.656;2023-09-19T07:10:49;2.80;;;2.60;;
4365;SDS011;2196;47.422;9.656;2023-09-19T07:13:19;2.43;;;2.33;;
4365;SDS011;2196;47.422;9.656;2023-09-19T07:15:46;2.20;;;2.00;;
4365;SDS011;2196;47.422;9.656;2023-09-19T07:18:15;2.67;;;2.57;;
4365;SDS011;2196;47.422;9.656;2023-09-19T07:20:43;2.60;;;2.50;;
4365;SDS011;2196;47.422;9.656;2023-09-19T07:23:13;2.67;;;2.47;;
4365;SDS011;2196;47.422;9.656;2023-09-19T07:25:41;3.47;;;3.27;;
4365;SDS011;2196;47.422;9.656;2023-09-19T07:28:09;2.33;;;2.23;;
4365;SDS011;2196;47.422;9.656;2023-09-19T07:30:36;1.50;;;1.50;;
4365;SDS011;2196;47.422;9.656;2023-09-19T07:33:04;1.87;;;1.77;;
4365;SDS011;2196;47.422;9.656;2023-09-19T07:35:31;2.13;;;1.97;;
4365;SDS011;2196;47.422;9.656;2023-09-19T07:37:58;2.67;;;1.87;;
4365;SDS011;2196;47.422;9.656;2023-09-19T07:40:27;1.87;;;1.63;;
4365;SDS011;2196;47.422;9.656;2023-09-19T07:42:54;1.20;;;1.20;;
4365;SDS011;2196;47.422;9.656;2023-09-19T07:45:22;1.90;;;1.80;;
4365;SDS011;2196;47.422;9.656;2023-09-19T07:47:50;1.47;;;1.40;;
4365;SDS011;2196;47.422;9.656;2023-09-19T07:50:18;2.20;;;1.10;;
4365;SDS011;2196;47.422;9.656;2023-09-19T07:52:45;1.57;;;1.40;;
4365;SDS011;2196;47.422;9.656;2023-09-19T07:55:13;1.87;;;1.77;;
4365;SDS011;2196;47.422;9.656;2023-09-19T07:57:42;2.00;;;1.80;;
4365;SDS011;2196;47.422;9.656;2023-09-19T08:00:10;2.73;;;2.57;;
4365;SDS011;2196;47.422;9.656;2023-09-19T08:02:39;2.70;;;1.50;;
4365;SDS011;2196;47.422;9.656;2023-09-19T08:05:07;1.43;;;1.33;;
4365;SDS011;2196;47.422;9.656;2023-09-19T08:07:36;2.10;;;0.97;;
4365;SDS011;2196;47.422;9.656;2023-09-19T08:10:03;1.70;;;1.37;;
4365;SDS011;2196;47.422;9.656;2023-09-19T08:12:32;3.90;;;1.67;;
4365;SDS011;2196;47.422;9.656;2023-09-19T08:15:00;2.30;;;1.37;;
4365;SDS011;2196;47.422;9.656;2023-09-19T08:17:27;3.00;;;2.03;;
4365;SDS011;2196;47.422;9.656;2023-09-19T08:19:56;2.17;;;1.97;;
4365;SDS011;2196;47.422;9.656;2023-09-19T08:22:23;1.50;;;1.40;;
4365;SDS011;2196;47.422;9.656;2023-09-19T08:24:49;4.17;;;2.37;;
4365;SDS011;2196;47.422;9.656;2023-09-19T08:27:16;1.80;;;1.70;;
4365;SDS011;2196;47.422;9.656;2023-09-19T08:29:44;2.03;;;1.60;;
4365;SDS011;2196;47.422;9.656;2023-09-19T08:32:11;2.57;;;2.13;;
4365;SDS011;2196;47.422;9.656;2023-09-19T08:34:39;1.53;;;1.53;;
4365;SDS011;2196;47.422;9.656;2023-09-19T08:37:08;1.23;;;0.90;;
4365;SDS011;2196;47.422;9.656;2023-09-19T08:39:35;1.53;;;1.47;;
4365;SDS011;2196;47.422;9.656;2023-09-19T08:42:03;1.63;;;1.17;;
4365;SDS011;2196;47.422;9.656;2023-09-19T08:44:35;1.17;;;1.07;;
4365;SDS011;2196;47.422;9.656;2023-09-19T08:47:08;1.60;;;1.50;;
4365;SDS011;2196;47.422;9.656;2023-09-19T08:49:38;4.83;;;0.90;;
4365;SDS011;2196;47.422;9.656;2023-09-19T08:52:22;2.30;;;0.80;;
4365;SDS011;2196;47.422;9.656;2023-09-19T08:54:52;2.20;;;1.00;;
4365;SDS011;2196;47.422;9.656;2023-09-19T08:57:27;2.23;;;0.60;;
4365;SDS011;2196;47.422;9.656;2023-09-19T08:59:55;1.70;;;0.70;;
4365;SDS011;2196;47.422;9.656;2023-09-19T09:02:25;1.13;;;0.93;;
4365;SDS011;2196;47.422;9.656;2023-09-19T09:04:54;1.07;;;0.63;;
4365;SDS011;2196;47.422;9.656;2023-09-19T09:07:24;1.17;;;0.60;;
4365;SDS011;2196;47.422;9.656;2023-09-19T09:09:52;1.13;;;1.10;;
4365;SDS011;2196;47.422;9.656;2023-09-19T09:12:19;2.93;;;1.27;;
4365;SDS011;2196;47.422;9.656;2023-09-19T09:14:47;1.57;;;1.03;;
4365;SDS011;2196;47.422;9.656;2023-09-19T09:17:15;2.07;;;0.97;;
4365;SDS011;2196;47.422;9.656;2023-09-19T09:19:45;1.43;;;1.10;;
4365;SDS011;2196;47.422;9.656;2023-09-19T09:22:12;1.93;;;1.30;;
4365;SDS011;2196;47.422;9.656;2023-09-19T09:24:52;1.17;;;1.17;;
4365;SDS011;2196;47.422;9.656;2023-09-19T09:27:22;1.20;;;1.10;;
4365;SDS011;2196;47.422;9.656;2023-09-19T09:29:50;1.07;;;0.97;;
4365;SDS011;2196;47.422;9.656;2023-09-19T09:32:21;0.60;;;0.60;;
4365;SDS011;2196;47.422;9.656;2023-09-19T09:34:50;7.53;;;2.70;;
4365;SDS011;2196;47.422;9.656;2023-09-19T09:37:18;1.40;;;0.80;;
4365;SDS011;2196;47.422;9.656;2023-09-19T09:39:49;0.80;;;0.60;;
4365;SDS011;2196;47.422;9.656;2023-09-19T09:42:31;0.60;;;0.60;;
4365;SDS011;2196;47.422;9.656;2023-09-19T09:45:13;1.60;;;0.90;;
4365;SDS011;2196;47.422;9.656;2023-09-19T09:47:41;0.53;;;0.43;;
4365;SDS011;2196;47.422;9.656;2023-09-19T09:50:22;0.40;;;0.40;;
4365;SDS011;2196;47.422;9.656;2023-09-19T09:53:03;0.40;;;0.40;;
4365;SDS011;2196;47.422;9.656;2023-09-19T09:55:56;0.93;;;0.67;;
4365;SDS011;2196;47.422;9.656;2023-09-19T09:58:24;0.70;;;0.47;;
4365;SDS011;2196;47.422;9.656;2023-09-19T10:00:54;1.40;;;0.63;;
4365;SDS011;2196;47.422;9.656;2023-09-19T10:03:31;0.50;;;0.40;;
4365;SDS011;2196;47.422;9.656;2023-09-19T10:06:04;0.30;;;0.30;;
4365;SDS011;2196;47.422;9.656;2023-09-19T10:08:57;0.40;;;0.40;;
4365;SDS011;2196;47.422;9.656;2023-09-19T10:11:32;1.80;;;0.37;;
4365;SDS011;2196;47.422;9.656;2023-09-19T10:14:04;0.43;;;0.40;;
4365;SDS011;2196;47.422;9.656;2023-09-19T10:16:33;0.40;;;0.33;;
4365;SDS011;2196;47.422;9.656;2023-09-19T10:19:04;0.30;;;0.30;;
4365;SDS011;2196;47.422;9.656;2023-09-19T10:21:34;0.60;;;0.40;;
4365;SDS011;2196;47.422;9.656;2023-09-19T10:24:03;0.50;;;0.27;;
4365;SDS011;2196;47.422;9.656;2023-09-19T10:26:36;1.23;;;0.33;;
4365;SDS011;2196;47.422;9.656;2023-09-19T10:29:05;0.67;;;0.40;;
4365;SDS011;2196;47.422;9.656;2023-09-19T10:31:35;1.40;;;0.60;;
4365;SDS011;2196;47.422;9.656;2023-09-19T10:34:05;0.70;;;0.30;;
4365;SDS011;2196;47.422;9.656;2023-09-19T10:36:35;0.67;;;0.30;;
4365;SDS011;2196;47.422;9.656;2023-09-19T10:39:04;0.53;;;0.40;;
4365;SDS011;2196;47.422;9.656;2023-09-19T10:41:34;0.27;;;0.27;;
4365;SDS011;2196;47.422;9.656;2023-09-19T10:44:03;0.30;;;0.30;;
4365;SDS011;2196;47.422;9.656;2023-09-19T10:46:31;3.30;;;0.40;;
4365;SDS011;2196;47.422;9.656;2023-09-19T10:48:58;0.40;;;0.40;;
4365;SDS011;2196;47.422;9.656;2023-09-19T10:51:29;0.33;;;0.30;;
4365;SDS011;2196;47.422;9.656;2023-09-19T10:54:05;0.97;;;0.40;;
4365;SDS011;2196;47.422;9.656;2023-09-19T10:56:38;0.30;;;0.30;;
4365;SDS011;2196;47.422;9.656;2023-09-19T10:59:12;0.30;;;0.30;;
4365;SDS011;2196;47.422;9.656;2023-09-19T11:01:41;0.30;;;0.30;;
4365;SDS011;2196;47.422;9.656;2023-09-19T11:04:20;0.30;;;0.30;;
4365;SDS011;2196;47.422;9.656;2023-09-19T11:06:59;0.30;;;0.30;;
4365;SDS011;2196;47.422;9.656;2023-09-19T11:09:43;0.83;;;0.30;;
4365;SDS011;2196;47.422;9.656;2023-09-19T11:12:13;0.20;;;0.20;;
4365;SDS011;2196;47.422;9.656;2023-09-19T11:24:32;0.10;;;0.10;;
4365;SDS011;2196;47.422;9.656;2023-09-19T11:27:09;0.70;;;0.20;;
4365;SDS011;2196;47.422;9.656;2023-09-19T11:29:43;0.30;;;0.30;;
4365;SDS011;2196;47.422;9.656;2023-09-19T11:32:11;0.40;;;0.40;;
4365;SDS011;2196;47.422;9.656;2023-09-19T11:34:43;0.33;;;0.30;;
4365;SDS011;2196;47.422;9.656;2023-09-19T11:40:27;0.30;;;0.30;;
4365;SDS011;2196;47.422;9.656;2023-09-19T11:42:57;1.10;;;0.23;;
4365;SDS011;2196;47.422;9.656;2023-09-19T11:48:34;0.40;;;0.40;;
4365;SDS011;2196;47.422;9.656;2023-09-19T11:51:09;0.30;;;0.30;;
4365;SDS011;2196;47.422;9.656;2023-09-19T11:53:44;0.23;;;0.23;;
4365;SDS011;2196;47.422;9.656;2023-09-19T11:56:13;0.90;;;0.30;;
4365;SDS011;2196;47.422;9.656;2023-09-19T11:58:44;0.30;;;0.30;;
4365;SDS011;2196;47.422;9.656;2023-09-19T12:01:14;0.50;;;0.50;;
4365;SDS011;2196;47.422;9.656;2023-09-19T12:03:47;0.30;;;0.30;;
4365;SDS011;2196;47.422;9.656;2023-09-19T12:06:19;0.30;;;0.20;;
4365;SDS011;2196;47.422;9.656;2023-09-19T12:08:48;0.70;;;0.20;;
4365;SDS011;2196;47.422;9.656;2023-09-19T12:11:16;1.53;;;0.40;;
4365;SDS011;2196;47.422;9.656;2023-09-19T12:13:47;0.97;;;0.30;;
4365;SDS011;2196;47.422;9.656;2023-09-19T12:16:15;1.53;;;0.30;;
4365;SDS011;2196;47.422;9.656;2023-09-19T12:18:46;0.30;;;0.30;;
4365;SDS011;2196;47.422;9.656;2023-09-19T12:21:22;1.20;;;0.30;;
4365;SDS011;2196;47.422;9.656;2023-09-19T12:23:56;0.40;;;0.20;;
4365;SDS011;2196;47.422;9.656;2023-09-19T12:26:26;0.40;;;0.40;;
4365;SDS011;2196;47.422;9.656;2023-09-19T12:28:55;0.33;;;0.30;;
4365;SDS011;2196;47.422;9.656;2023-09-19T12:31:22;0.27;;;0.27;;
4365;SDS011;2196;47.422;9.656;2023-09-19T12:33:54;0.30;;;0.20;;
4365;SDS011;2196;47.422;9.656;2023-09-19T12:36:22;1.23;;;0.20;;
4365;SDS011;2196;47.422;9.656;2023-09-19T12:38:54;0.30;;;0.30;;
4365;SDS011;2196;47.422;9.656;2023-09-19T12:41:24;0.60;;;0.40;;
4365;SDS011;2196;47.422;9.656;2023-09-19T12:43:52;0.47;;;0.47;;
4365;SDS011;2196;47.422;9.656;2023-09-19T12:46:21;0.40;;;0.30;;
4365;SDS011;2196;47.422;9.656;2023-09-19T12:51:43;0.40;;;0.30;;
4365;SDS011;2196;47.422;9.656;2023-09-19T12:54:11;0.30;;;0.30;;
4365;SDS011;2196;47.422;9.656;2023-09-19T12:56:40;0.30;;;0.27;;
4365;SDS011;2196;47.422;9.656;2023-09-19T12:59:10;0.43;;;0.40;;
4365;SDS011;2196;47.422;9.656;2023-09-19T13:01:40;0.30;;;0.30;;
4365;SDS011;2196;47.422;9.656;2023-09-19T13:04:14;0.33;;;0.33;;
4365;SDS011;2196;47.422;9.656;2023-09-19T13:06:51;0.63;;;0.30;;
4365;SDS011;2196;47.422;9.656;2023-09-19T13:09:20;0.50;;;0.40;;
4365;SDS011;2196;47.422;9.656;2023-09-19T13:11:59;3.27;;;0.40;;
4365;SDS011;2196;47.422;9.656;2023-09-19T13:14:28;0.87;;;0.60;;
4365;SDS011;2196;47.422;9.656;2023-09-19T13:16:58;0.23;;;0.23;;
4365;SDS011;2196;47.422;9.656;2023-09-19T13:19:35;0.33;;;0.33;;
4365;SDS011;2196;47.422;9.656;2023-09-19T13:22:03;1.97;;;0.40;;
4365;SDS011;2196;47.422;9.656;2023-09-19T13:24:31;0.30;;;0.30;;
4365;SDS011;2196;47.422;9.656;2023-09-19T13:27:00;0.30;;;0.30;;
4365;SDS011;2196;47.422;9.656;2023-09-19T13:29:28;1.23;;;0.40;;
4365;SDS011;2196;47.422;9.656;2023-09-19T13:31:55;0.40;;;0.40;;
4365;SDS011;2196;47.422;9.656;2023-09-19T13:34:24;0.53;;;0.40;;
4365;SDS011;2196;47.422;9.656;2023-09-19T13:36:51;1.43;;;0.30;;
4365;SDS011;2196;47.422;9.656;2023-09-19T13:39:19;0.83;;;0.40;;
4365;SDS011;2196;47.422;9.656;2023-09-19T13:41:49;1.80;;;0.30;;
4365;SDS011;2196;47.422;9.656;2023-09-19T13:44:16;1.40;;;0.40;;
4365;SDS011;2196;47.422;9.656;2023-09-19T13:46:43;0.40;;;0.40;;
4365;SDS011;2196;47.422;9.656;2023-09-19T13:49:12;1.30;;;0.50;;
4365;SDS011;2196;47.422;9.656;2023-09-19T13:51:39;1.43;;;0.40;;
4365;SDS011;2196;47.422;9.656;2023-09-19T13:54:08;0.93;;;0.57;;
4365;SDS011;2196;47.422;9.656;2023-09-19T13:56:37;0.40;;;0.40;;
4365;SDS011;2196;47.422;9.656;2023-09-19T13:59:04;1.00;;;1.00;;
4365;SDS011;2196;47.422;9.656;2023-09-19T14:01:31;1.27;;;0.50;;
4365;SDS011;2196;47.422;9.656;2023-09-19T14:03:58;0.37;;;0.37;;
4365;SDS011;2196;47.422;9.656;2023-09-19T14:06:26;0.30;;;0.30;;
4365;SDS011;2196;47.422;9.656;2023-09-19T14:08:53;1.40;;;0.80;;
4365;SDS011;2196;47.422;9.656;2023-09-19T14:11:21;0.50;;;0.50;;
4365;SDS011;2196;47.422;9.656;2023-09-19T14:13:47;0.30;;;0.30;;
4365;SDS011;2196;47.422;9.656;2023-09-19T14:16:15;0.70;;;0.40;;
4365;SDS011;2196;47.422;9.656;2023-09-19T14:18:44;0.47;;;0.40;;
4365;SDS011;2196;47.422;9.656;2023-09-19T14:21:12;0.40;;;0.40;;
4365;SDS011;2196;47.422;9.656;2023-09-19T14:23:41;0.73;;;0.70;;
4365;SDS011;2196;47.422;9.656;2023-09-19T14:26:09;0.40;;;0.40;;
4365;SDS011;2196;47.422;9.656;2023-09-19T14:28:36;0.50;;;0.50;;
4365;SDS011;2196;47.422;9.656;2023-09-19T14:31:04;1.03;;;0.30;;
4365;SDS011;2196;47.422;9.656;2023-09-19T14:33:32;0.40;;;0.40;;
4365;SDS011;2196;47.422;9.656;2023-09-19T14:36:02;1.33;;;0.30;;
4365;SDS011;2196;47.422;9.656;2023-09-19T14:38:30;0.73;;;0.30;;
4365;SDS011;2196;47.422;9.656;2023-09-19T14:41:00;0.30;;;0.30;;
4365;SDS011;2196;47.422;9.656;2023-09-19T14:43:27;0.30;;;0.30;;
4365;SDS011;2196;47.422;9.656;2023-09-19T14:45:55;0.40;;;0.30;;
4365;SDS011;2196;47.422;9.656;2023-09-19T14:48:23;1.70;;;0.30;;
4365;SDS011;2196;47.422;9.656;2023-09-19T14:50:50;0.43;;;0.43;;
4365;SDS011;2196;47.422;9.656;2023-09-19T14:53:18;1.03;;;0.50;;
4365;SDS011;2196;47.422;9.656;2023-09-19T14:55:45;0.83;;;0.40;;
4365;SDS011;2196;47.422;9.656;2023-09-19T14:58:14;1.20;;;0.27;;
4365;SDS011;2196;47.422;9.656;2023-09-19T15:00:41;3.47;;;0.33;;
4365;SDS011;2196;47.422;9.656;2023-09-19T15:03:10;0.30;;;0.30;;
4365;SDS011;2196;47.422;9.656;2023-09-19T15:05:38;0.30;;;0.30;;
4365;SDS011;2196;47.422;9.656;2023-09-19T15:08:05;0.40;;;0.40;;
4365;SDS011;2196;47.422;9.656;2023-09-19T15:10:32;0.40;;;0.40;;
4365;SDS011;2196;47.422;9.656;2023-09-19T15:12:59;0.40;;;0.40;;
4365;SDS011;2196;47.422;9.656;2023-09-19T15:15:28;0.40;;;0.40;;
4365;SDS011;2196;47.422;9.656;2023-09-19T15:17:57;1.97;;;0.57;;
4365;SDS011;2196;47.422;9.656;2023-09-19T15:20:24;0.83;;;0.83;;
4365;SDS011;2196;47.422;9.656;2023-09-19T15:22:51;3.17;;;0.60;;
4365;SDS011;2196;47.422;9.656;2023-09-19T15:25:18;0.50;;;0.50;;
4365;SDS011;2196;47.422;9.656;2023-09-19T15:27:45;0.70;;;0.70;;
4365;SDS011;2196;47.422;9.656;2023-09-19T15:30:12;2.30;;;1.00;;
4365;SDS011;2196;47.422;9.656;2023-09-19T15:32:41;0.50;;;0.33;;
4365;SDS011;2196;47.422;9.656;2023-09-19T15:35:08;1.87;;;0.50;;
4365;SDS011;2196;47.422;9.656;2023-09-19T15:37:37;0.87;;;0.50;;
4365;SDS011;2196;47.422;9.656;2023-09-19T15:40:06;0.40;;;0.40;;
4365;SDS011;2196;47.422;9.656;2023-09-19T15:42:35;0.40;;;0.40;;
4365;SDS011;2196;47.422;9.656;2023-09-19T15:45:03;1.23;;;0.40;;
4365;SDS011;2196;47.422;9.656;2023-09-19T15:47:30;0.50;;;0.40;;
4365;SDS011;2196;47.422;9.656;2023-09-19T15:49:59;0.60;;;0.60;;
4365;SDS011;2196;47.422;9.656;2023-09-19T15:52:25;0.53;;;0.30;;
4365;SDS011;2196;47.422;9.656;2023-09-19T15:54:52;0.70;;;0.50;;
4365;SDS011;2196;47.422;9.656;2023-09-19T15:57:19;0.50;;;0.50;;